sensor_id;sensor_type;location;lat;lon;timestamp;pressure;altitude;pressure_sealevel;temperature
20733;BMP180;10527;52.124;5.196;2023-05-07T00:00:00;101521.00;;;27.90
20733;BMP180;10527;52.124;5.196;2023-05-07T00:02:27;101523.00;;;27.90
20733;BMP180;10527;52.124;5.196;2023-05-07T00:04:55;101515.00;;;27.90
20733;BMP180;10527;52.124;5.196;2023-05-07T00:07:23;101528.00;;;27.90
20733;BMP180;10527;52.124;5.196;2023-05-07T00:09:51;101523.00;;;27.80
20733;BMP180;10527;52.124;5.196;2023-05-07T00:12:18;101521.00;;;27.80
20733;BMP180;10527;52.124;5.196;2023-05-07T00:14:44;101521.00;;;27.80
20733;BMP180;10527;52.124;5.196;2023-05-07T00:17:12;101525.00;;;27.80
20733;BMP180;10527;52.124;5.196;2023-05-07T00:19:38;101520.00;;;27.80
20733;BMP180;10527;52.124;5.196;2023-05-07T00:22:07;101517.00;;;27.70
20733;BMP180;10527;52.124;5.196;2023-05-07T00:24:34;101516.00;;;27.70
20733;BMP180;10527;52.124;5.196;2023-05-07T00:27:01;101513.00;;;27.70
20733;BMP180;10527;52.124;5.196;2023-05-07T00:29:27;101517.00;;;27.70
20733;BMP180;10527;52.124;5.196;2023-05-07T00:31:54;101515.00;;;27.70
20733;BMP180;10527;52.124;5.196;2023-05-07T00:34:21;101517.00;;;27.70
20733;BMP180;10527;52.124;5.196;2023-05-07T00:36:48;101517.00;;;27.60
20733;BMP180;10527;52.124;5.196;2023-05-07T00:39:15;101513.00;;;27.60
20733;BMP180;10527;52.124;5.196;2023-05-07T00:41:42;101512.00;;;27.60
20733;BMP180;10527;52.124;5.196;2023-05-07T00:44:09;101503.00;;;27.60
20733;BMP180;10527;52.124;5.196;2023-05-07T00:46:36;101507.00;;;27.60
20733;BMP180;10527;52.124;5.196;2023-05-07T00:49:04;101514.00;;;27.60
20733;BMP180;10527;52.124;5.196;2023-05-07T00:51:32;101503.00;;;27.60
20733;BMP180;10527;52.124;5.196;2023-05-07T00:54:03;101507.00;;;27.60
20733;BMP180;10527;52.124;5.196;2023-05-07T00:56:31;101505.00;;;27.60
20733;BMP180;10527;52.124;5.196;2023-05-07T00:58:58;101505.00;;;27.50
20733;BMP180;10527;52.124;5.196;2023-05-07T01:01:25;101505.00;;;27.60
20733;BMP180;10527;52.124;5.196;2023-05-07T01:03:53;101511.00;;;27.60
20733;BMP180;10527;52.124;5.196;2023-05-07T01:06:23;101503.00;;;27.50
20733;BMP180;10527;52.124;5.196;2023-05-07T01:08:52;101508.00;;;27.50
20733;BMP180;10527;52.124;5.196;2023-05-07T01:11:19;101503.00;;;27.60
20733;BMP180;10527;52.124;5.196;2023-05-07T01:13:48;101505.00;;;27.60
20733;BMP180;10527;52.124;5.196;2023-05-07T01:16:17;101511.00;;;27.60
20733;BMP180;10527;52.124;5.196;2023-05-07T01:18:44;101517.00;;;27.50
20733;BMP180;10527;52.124;5.196;2023-05-07T01:21:17;101516.00;;;27.50
20733;BMP180;10527;52.124;5.196;2023-05-07T01:23:45;101510.00;;;27.50
20733;BMP180;10527;52.124;5.196;2023-05-07T01:26:12;101506.00;;;27.50
20733;BMP180;10527;52.124;5.196;2023-05-07T01:28:39;101506.00;;;27.50
20733;BMP180;10527;52.124;5.196;2023-05-07T01:31:12;101512.00;;;27.60
20733;BMP180;10527;52.124;5.196;2023-05-07T01:33:41;101507.00;;;27.50
20733;BMP180;10527;52.124;5.196;2023-05-07T01:36:13;101517.00;;;27.50
20733;BMP180;10527;52.124;5.196;2023-05-07T01:38:42;101517.00;;;27.50
20733;BMP180;10527;52.124;5.196;2023-05-07T01:41:09;101512.00;;;27.50
20733;BMP180;10527;52.124;5.196;2023-05-07T01:43:36;101522.00;;;27.50
20733;BMP180;10527;52.124;5.196;2023-05-07T01:46:04;101507.00;;;27.50
20733;BMP180;10527;52.124;5.196;2023-05-07T01:48:32;101501.00;;;27.50
20733;BMP180;10527;52.124;5.196;2023-05-07T01:51:01;101515.00;;;27.50
20733;BMP180;10527;52.124;5.196;2023-05-07T01:53:28;101511.00;;;27.50
20733;BMP180;10527;52.124;5.196;2023-05-07T01:55:55;101507.00;;;27.50
20733;BMP180;10527;52.124;5.196;2023-05-07T01:58:22;101505.00;;;27.50
20733;BMP180;10527;52.124;5.196;2023-05-07T02:00:48;101494.00;;;27.50
20733;BMP180;10527;52.124;5.196;2023-05-07T02:03:15;101507.00;;;27.50
20733;BMP180;10527;52.124;5.196;2023-05-07T02:05:42;101497.00;;;27.40
20733;BMP180;10527;52.124;5.196;2023-05-07T02:08:09;101496.00;;;27.40
20733;BMP180;10527;52.124;5.196;2023-05-07T02:10:36;101496.00;;;27.40
20733;BMP180;10527;52.124;5.196;2023-05-07T02:13:03;101494.00;;;27.40
20733;BMP180;10527;52.124;5.196;2023-05-07T02:15:30;101492.00;;;27.40
20733;BMP180;10527;52.124;5.196;2023-05-07T02:18:05;101489.00;;;27.40
20733;BMP180;10527;52.124;5.196;2023-05-07T02:20:33;101479.00;;;27.40
20733;BMP180;10527;52.124;5.196;2023-05-07T02:23:00;101481.00;;;27.40
20733;BMP180;10527;52.124;5.196;2023-05-07T02:25:27;101479.00;;;27.30
20733;BMP180;10527;52.124;5.196;2023-05-07T02:27:54;101493.00;;;27.30
20733;BMP180;10527;52.124;5.196;2023-05-07T02:30:21;101490.00;;;27.30
20733;BMP180;10527;52.124;5.196;2023-05-07T02:32:48;101494.00;;;27.30
20733;BMP180;10527;52.124;5.196;2023-05-07T02:35:15;101493.00;;;27.30
20733;BMP180;10527;52.124;5.196;2023-05-07T02:37:42;101486.00;;;27.30
20733;BMP180;10527;52.124;5.196;2023-05-07T02:40:10;101488.00;;;27.30
20733;BMP180;10527;52.124;5.196;2023-05-07T02:42:38;101489.00;;;27.30
20733;BMP180;10527;52.124;5.196;2023-05-07T02:45:05;101498.00;;;27.30
20733;BMP180;10527;52.124;5.196;2023-05-07T02:47:32;101498.00;;;27.30
20733;BMP180;10527;52.124;5.196;2023-05-07T02:49:59;101501.00;;;27.30
20733;BMP180;10527;52.124;5.196;2023-05-07T02:52:26;101507.00;;;27.30
20733;BMP180;10527;52.124;5.196;2023-05-07T02:54:53;101505.00;;;27.20
20733;BMP180;10527;52.124;5.196;2023-05-07T02:57:19;101505.00;;;27.20
20733;BMP180;10527;52.124;5.196;2023-05-07T02:59:46;101492.00;;;27.20
20733;BMP180;10527;52.124;5.196;2023-05-07T03:02:13;101499.00;;;27.20
20733;BMP180;10527;52.124;5.196;2023-05-07T03:04:42;101489.00;;;27.20
20733;BMP180;10527;52.124;5.196;2023-05-07T03:07:09;101493.00;;;27.20
20733;BMP180;10527;52.124;5.196;2023-05-07T03:09:35;101491.00;;;27.20
20733;BMP180;10527;52.124;5.196;2023-05-07T03:12:02;101485.00;;;27.20
20733;BMP180;10527;52.124;5.196;2023-05-07T03:14:29;101481.00;;;27.20
20733;BMP180;10527;52.124;5.196;2023-05-07T03:16:59;101486.00;;;27.20
20733;BMP180;10527;52.124;5.196;2023-05-07T03:19:25;101487.00;;;27.10
20733;BMP180;10527;52.124;5.196;2023-05-07T03:21:52;101489.00;;;27.10
20733;BMP180;10527;52.124;5.196;2023-05-07T03:24:20;101487.00;;;27.10
20733;BMP180;10527;52.124;5.196;2023-05-07T03:26:46;101486.00;;;27.10
20733;BMP180;10527;52.124;5.196;2023-05-07T03:29:13;101488.00;;;27.10
20733;BMP180;10527;52.124;5.196;2023-05-07T03:31:40;101494.00;;;27.10
20733;BMP180;10527;52.124;5.196;2023-05-07T03:34:09;101486.00;;;27.00
20733;BMP180;10527;52.124;5.196;2023-05-07T03:36:36;101491.00;;;27.00
20733;BMP180;10527;52.124;5.196;2023-05-07T03:39:03;101487.00;;;27.00
20733;BMP180;10527;52.124;5.196;2023-05-07T03:41:29;101482.00;;;27.00
20733;BMP180;10527;52.124;5.196;2023-05-07T03:43:56;101488.00;;;27.00
20733;BMP180;10527;52.124;5.196;2023-05-07T03:46:23;101484.00;;;27.00
20733;BMP180;10527;52.124;5.196;2023-05-07T03:48:52;101493.00;;;27.00
20733;BMP180;10527;52.124;5.196;2023-05-07T03:51:19;101489.00;;;26.90
20733;BMP180;10527;52.124;5.196;2023-05-07T03:53:46;101482.00;;;26.90
20733;BMP180;10527;52.124;5.196;2023-05-07T03:56:13;101480.00;;;26.90
20733;BMP180;10527;52.124;5.196;2023-05-07T03:58:39;101483.00;;;26.90
20733;BMP180;10527;52.124;5.196;2023-05-07T04:01:06;101484.00;;;26.90
20733;BMP180;10527;52.124;5.196;2023-05-07T04:03:34;101483.00;;;26.90
20733;BMP180;10527;52.124;5.196;2023-05-07T04:06:01;101491.00;;;26.90
20733;BMP180;10527;52.124;5.196;2023-05-07T04:08:27;101484.00;;;26.90
20733;BMP180;10527;52.124;5.196;2023-05-07T04:10:58;101490.00;;;26.90
20733;BMP180;10527;52.124;5.196;2023-05-07T04:13:27;101489.00;;;26.90
20733;BMP180;10527;52.124;5.196;2023-05-07T04:15:55;101497.00;;;26.80
20733;BMP180;10527;52.124;5.196;2023-05-07T04:18:22;101497.00;;;26.80
20733;BMP180;10527;52.124;5.196;2023-05-07T04:20:49;101504.00;;;26.80
20733;BMP180;10527;52.124;5.196;2023-05-07T04:23:19;101494.00;;;26.80
20733;BMP180;10527;52.124;5.196;2023-05-07T04:25:46;101495.00;;;26.80
20733;BMP180;10527;52.124;5.196;2023-05-07T04:28:13;101499.00;;;26.80
20733;BMP180;10527;52.124;5.196;2023-05-07T04:30:40;101502.00;;;26.80
20733;BMP180;10527;52.124;5.196;2023-05-07T04:33:10;101506.00;;;26.80
20733;BMP180;10527;52.124;5.196;2023-05-07T04:35:38;101502.00;;;26.80
20733;BMP180;10527;52.124;5.196;2023-05-07T04:38:04;101508.00;;;26.80
20733;BMP180;10527;52.124;5.196;2023-05-07T04:40:35;101508.00;;;26.80
20733;BMP180;10527;52.124;5.196;2023-05-07T04:43:02;101507.00;;;26.80
20733;BMP180;10527;52.124;5.196;2023-05-07T04:45:29;101511.00;;;26.80
20733;BMP180;10527;52.124;5.196;2023-05-07T04:47:55;101509.00;;;26.80
20733;BMP180;10527;52.124;5.196;2023-05-07T04:50:22;101512.00;;;26.80
20733;BMP180;10527;52.124;5.196;2023-05-07T04:52:50;101506.00;;;26.80
20733;BMP180;10527;52.124;5.196;2023-05-07T04:55:17;101503.00;;;26.90
20733;BMP180;10527;52.124;5.196;2023-05-07T04:57:44;101510.00;;;26.80
20733;BMP180;10527;52.124;5.196;2023-05-07T05:00:12;101506.00;;;26.90
20733;BMP180;10527;52.124;5.196;2023-05-07T05:02:42;101509.00;;;26.90
20733;BMP180;10527;52.124;5.196;2023-05-07T05:05:09;101511.00;;;26.90
20733;BMP180;10527;52.124;5.196;2023-05-07T05:07:36;101503.00;;;26.90
20733;BMP180;10527;52.124;5.196;2023-05-07T05:10:06;101507.00;;;26.90
20733;BMP180;10527;52.124;5.196;2023-05-07T05:12:33;101508.00;;;26.90
20733;BMP180;10527;52.124;5.196;2023-05-07T05:15:01;101508.00;;;26.90
20733;BMP180;10527;52.124;5.196;2023-05-07T05:17:27;101512.00;;;26.90
20733;BMP180;10527;52.124;5.196;2023-05-07T05:19:54;101513.00;;;26.90
20733;BMP180;10527;52.124;5.196;2023-05-07T05:22:21;101528.00;;;26.90
20733;BMP180;10527;52.124;5.196;2023-05-07T05:24:48;101526.00;;;26.90
20733;BMP180;10527;52.124;5.196;2023-05-07T05:27:14;101523.00;;;26.90
20733;BMP180;10527;52.124;5.196;2023-05-07T05:29:41;101526.00;;;26.90
20733;BMP180;10527;52.124;5.196;2023-05-07T05:32:08;101525.00;;;26.90
20733;BMP180;10527;52.124;5.196;2023-05-07T05:34:35;101529.00;;;26.90
20733;BMP180;10527;52.124;5.196;2023-05-07T05:37:01;101535.00;;;26.90
20733;BMP180;10527;52.124;5.196;2023-05-07T05:39:28;101538.00;;;26.90
20733;BMP180;10527;52.124;5.196;2023-05-07T05:41:55;101536.00;;;26.90
20733;BMP180;10527;52.124;5.196;2023-05-07T05:44:22;101545.00;;;26.90
20733;BMP180;10527;52.124;5.196;2023-05-07T05:46:49;101553.00;;;26.90
20733;BMP180;10527;52.124;5.196;2023-05-07T05:49:16;101551.00;;;26.90
20733;BMP180;10527;52.124;5.196;2023-05-07T05:51:43;101552.00;;;26.90
20733;BMP180;10527;52.124;5.196;2023-05-07T05:54:10;101547.00;;;26.90
20733;BMP180;10527;52.124;5.196;2023-05-07T05:56:37;101554.00;;;26.90
20733;BMP180;10527;52.124;5.196;2023-05-07T05:59:04;101553.00;;;26.90
20733;BMP180;10527;52.124;5.196;2023-05-07T06:01:33;101553.00;;;26.90
20733;BMP180;10527;52.124;5.196;2023-05-07T06:04:00;101552.00;;;26.90
20733;BMP180;10527;52.124;5.196;2023-05-07T06:06:27;101548.00;;;26.90
20733;BMP180;10527;52.124;5.196;2023-05-07T06:08:54;101559.00;;;26.90
20733;BMP180;10527;52.124;5.196;2023-05-07T06:11:21;101567.00;;;26.90
20733;BMP180;10527;52.124;5.196;2023-05-07T06:13:48;101557.00;;;26.90
20733;BMP180;10527;52.124;5.196;2023-05-07T06:16:14;101573.00;;;26.90
20733;BMP180;10527;52.124;5.196;2023-05-07T06:18:41;101567.00;;;26.90
20733;BMP180;10527;52.124;5.196;2023-05-07T06:21:09;101569.00;;;26.90
20733;BMP180;10527;52.124;5.196;2023-05-07T06:23:39;101571.00;;;26.90
20733;BMP180;10527;52.124;5.196;2023-05-07T06:26:07;101576.00;;;26.90
20733;BMP180;10527;52.124;5.196;2023-05-07T06:28:34;101573.00;;;26.90
20733;BMP180;10527;52.124;5.196;2023-05-07T06:31:15;101573.00;;;26.90
20733;BMP180;10527;52.124;5.196;2023-05-07T06:33:44;101577.00;;;26.90
20733;BMP180;10527;52.124;5.196;2023-05-07T06:36:12;101578.00;;;27.00
20733;BMP180;10527;52.124;5.196;2023-05-07T06:38:39;101584.00;;;27.00
20733;BMP180;10527;52.124;5.196;2023-05-07T06:41:06;101585.00;;;27.00
20733;BMP180;10527;52.124;5.196;2023-05-07T06:43:35;101582.00;;;27.10
20733;BMP180;10527;52.124;5.196;2023-05-07T06:46:02;101580.00;;;27.10
20733;BMP180;10527;52.124;5.196;2023-05-07T06:48:29;101583.00;;;27.10
20733;BMP180;10527;52.124;5.196;2023-05-07T06:50:56;101581.00;;;27.20
20733;BMP180;10527;52.124;5.196;2023-05-07T06:53:24;101584.00;;;27.20
20733;BMP180;10527;52.124;5.196;2023-05-07T06:55:52;101596.00;;;27.20
20733;BMP180;10527;52.124;5.196;2023-05-07T06:58:20;101588.00;;;27.30
20733;BMP180;10527;52.124;5.196;2023-05-07T07:00:46;101593.00;;;27.30
20733;BMP180;10527;52.124;5.196;2023-05-07T07:03:14;101590.00;;;27.40
20733;BMP180;10527;52.124;5.196;2023-05-07T07:05:42;101590.00;;;27.40
20733;BMP180;10527;52.124;5.196;2023-05-07T07:08:10;101591.00;;;27.40
20733;BMP180;10527;52.124;5.196;2023-05-07T07:10:36;101595.00;;;27.50
20733;BMP180;10527;52.124;5.196;2023-05-07T07:13:03;101586.00;;;27.50
20733;BMP180;10527;52.124;5.196;2023-05-07T07:15:30;101593.00;;;27.50
20733;BMP180;10527;52.124;5.196;2023-05-07T07:17:57;101583.00;;;27.60
20733;BMP180;10527;52.124;5.196;2023-05-07T07:20:24;101587.00;;;27.60
20733;BMP180;10527;52.124;5.196;2023-05-07T07:22:52;101590.00;;;27.70
20733;BMP180;10527;52.124;5.196;2023-05-07T07:25:20;101583.00;;;27.70
20733;BMP180;10527;52.124;5.196;2023-05-07T07:27:47;101580.00;;;27.80
20733;BMP180;10527;52.124;5.196;2023-05-07T07:30:14;101580.00;;;27.80
20733;BMP180;10527;52.124;5.196;2023-05-07T07:32:41;101567.00;;;27.80
20733;BMP180;10527;52.124;5.196;2023-05-07T07:35:09;101576.00;;;27.90
20733;BMP180;10527;52.124;5.196;2023-05-07T07:37:37;101577.00;;;28.00
20733;BMP180;10527;52.124;5.196;2023-05-07T07:40:04;101585.00;;;28.00
20733;BMP180;10527;52.124;5.196;2023-05-07T07:42:31;101588.00;;;28.00
20733;BMP180;10527;52.124;5.196;2023-05-07T07:44:58;101592.00;;;28.10
20733;BMP180;10527;52.124;5.196;2023-05-07T07:47:27;101603.00;;;28.20
20733;BMP180;10527;52.124;5.196;2023-05-07T07:49:54;101604.00;;;28.20
20733;BMP180;10527;52.124;5.196;2023-05-07T07:52:22;101603.00;;;28.20
20733;BMP180;10527;52.124;5.196;2023-05-07T07:54:48;101601.00;;;28.20
20733;BMP180;10527;52.124;5.196;2023-05-07T07:57:15;101602.00;;;28.20
20733;BMP180;10527;52.124;5.196;2023-05-07T07:59:43;101594.00;;;28.30
20733;BMP180;10527;52.124;5.196;2023-05-07T08:02:10;101599.00;;;28.30
20733;BMP180;10527;52.124;5.196;2023-05-07T08:04:37;101598.00;;;28.30
20733;BMP180;10527;52.124;5.196;2023-05-07T08:07:05;101597.00;;;28.30
20733;BMP180;10527;52.124;5.196;2023-05-07T08:09:32;101596.00;;;28.40
20733;BMP180;10527;52.124;5.196;2023-05-07T08:11:59;101596.00;;;28.40
20733;BMP180;10527;52.124;5.196;2023-05-07T08:14:26;101592.00;;;28.40
20733;BMP180;10527;52.124;5.196;2023-05-07T08:16:55;101590.00;;;28.40
20733;BMP180;10527;52.124;5.196;2023-05-07T08:19:22;101592.00;;;28.40
20733;BMP180;10527;52.124;5.196;2023-05-07T08:21:49;101590.00;;;28.40
20733;BMP180;10527;52.124;5.196;2023-05-07T08:24:17;101599.00;;;28.50
20733;BMP180;10527;52.124;5.196;2023-05-07T08:26:44;101596.00;;;28.50
20733;BMP180;10527;52.124;5.196;2023-05-07T08:29:13;101593.00;;;28.50
20733;BMP180;10527;52.124;5.196;2023-05-07T08:31:40;101603.00;;;28.50
20733;BMP180;10527;52.124;5.196;2023-05-07T08:34:07;101596.00;;;28.50
20733;BMP180;10527;52.124;5.196;2023-05-07T08:36:35;101602.00;;;28.60
20733;BMP180;10527;52.124;5.196;2023-05-07T08:39:02;101605.00;;;28.60
20733;BMP180;10527;52.124;5.196;2023-05-07T08:41:30;101613.00;;;28.60
20733;BMP180;10527;52.124;5.196;2023-05-07T08:43:59;101614.00;;;28.70
20733;BMP180;10527;52.124;5.196;2023-05-07T08:46:32;101607.00;;;28.70
20733;BMP180;10527;52.124;5.196;2023-05-07T08:48:59;101605.00;;;28.80
20733;BMP180;10527;52.124;5.196;2023-05-07T08:51:26;101616.00;;;28.80
20733;BMP180;10527;52.124;5.196;2023-05-07T08:53:54;101615.00;;;28.90
20733;BMP180;10527;52.124;5.196;2023-05-07T08:56:20;101614.00;;;28.90
20733;BMP180;10527;52.124;5.196;2023-05-07T08:58:48;101621.00;;;28.90
20733;BMP180;10527;52.124;5.196;2023-05-07T09:01:16;101622.00;;;29.00
20733;BMP180;10527;52.124;5.196;2023-05-07T09:03:49;101628.00;;;29.00
20733;BMP180;10527;52.124;5.196;2023-05-07T09:06:16;101626.00;;;29.00
20733;BMP180;10527;52.124;5.196;2023-05-07T09:08:54;101627.00;;;29.10
20733;BMP180;10527;52.124;5.196;2023-05-07T09:11:23;101622.00;;;29.10
20733;BMP180;10527;52.124;5.196;2023-05-07T09:13:54;101621.00;;;29.20
20733;BMP180;10527;52.124;5.196;2023-05-07T09:16:27;101624.00;;;29.30
20733;BMP180;10527;52.124;5.196;2023-05-07T09:18:57;101626.00;;;29.30
20733;BMP180;10527;52.124;5.196;2023-05-07T09:21:24;101619.00;;;29.40
20733;BMP180;10527;52.124;5.196;2023-05-07T09:23:53;101623.00;;;29.50
20733;BMP180;10527;52.124;5.196;2023-05-07T09:26:24;101616.00;;;29.50
20733;BMP180;10527;52.124;5.196;2023-05-07T09:28:52;101627.00;;;29.60
20733;BMP180;10527;52.124;5.196;2023-05-07T09:31:18;101624.00;;;29.60
20733;BMP180;10527;52.124;5.196;2023-05-07T09:33:47;101626.00;;;29.60
20733;BMP180;10527;52.124;5.196;2023-05-07T09:36:14;101623.00;;;29.70
20733;BMP180;10527;52.124;5.196;2023-05-07T09:38:41;101617.00;;;29.70
20733;BMP180;10527;52.124;5.196;2023-05-07T09:41:11;101616.00;;;29.70
20733;BMP180;10527;52.124;5.196;2023-05-07T09:43:40;101622.00;;;29.70
20733;BMP180;10527;52.124;5.196;2023-05-07T09:46:15;101616.00;;;29.70
20733;BMP180;10527;52.124;5.196;2023-05-07T09:49:06;101624.00;;;29.70
20733;BMP180;10527;52.124;5.196;2023-05-07T09:51:52;101632.00;;;29.80
20733;BMP180;10527;52.124;5.196;2023-05-07T09:54:23;101630.00;;;29.80
20733;BMP180;10527;52.124;5.196;2023-05-07T09:57:11;101631.00;;;29.90
20733;BMP180;10527;52.124;5.196;2023-05-07T09:59:42;101632.00;;;30.00
20733;BMP180;10527;52.124;5.196;2023-05-07T10:02:13;101635.00;;;30.00
20733;BMP180;10527;52.124;5.196;2023-05-07T10:04:44;101634.00;;;30.10
20733;BMP180;10527;52.124;5.196;2023-05-07T10:07:13;101637.00;;;30.20
20733;BMP180;10527;52.124;5.196;2023-05-07T10:09:40;101637.00;;;30.20
20733;BMP180;10527;52.124;5.196;2023-05-07T10:12:10;101637.00;;;30.30
20733;BMP180;10527;52.124;5.196;2023-05-07T10:14:37;101636.00;;;30.40
20733;BMP180;10527;52.124;5.196;2023-05-07T10:17:04;101637.00;;;30.40
20733;BMP180;10527;52.124;5.196;2023-05-07T10:19:33;101638.00;;;30.50
20733;BMP180;10527;52.124;5.196;2023-05-07T10:22:05;101638.00;;;30.50
20733;BMP180;10527;52.124;5.196;2023-05-07T10:24:37;101630.00;;;30.60
20733;BMP180;10527;52.124;5.196;2023-05-07T10:27:10;101633.00;;;30.70
20733;BMP180;10527;52.124;5.196;2023-05-07T10:33:13;101632.00;;;30.80
20733;BMP180;10527;52.124;5.196;2023-05-07T10:35:48;101625.00;;;30.90
20733;BMP180;10527;52.124;5.196;2023-05-07T10:38:15;101622.00;;;30.90
20733;BMP180;10527;52.124;5.196;2023-05-07T10:40:43;101623.00;;;31.00
20733;BMP180;10527;52.124;5.196;2023-05-07T10:43:14;101640.00;;;31.10
20733;BMP180;10527;52.124;5.196;2023-05-07T10:49:10;101648.00;;;31.20
20733;BMP180;10527;52.124;5.196;2023-05-07T10:51:39;101644.00;;;31.30
20733;BMP180;10527;52.124;5.196;2023-05-07T10:56:44;101643.00;;;31.50
20733;BMP180;10527;52.124;5.196;2023-05-07T10:59:37;101642.00;;;31.60
20733;BMP180;10527;52.124;5.196;2023-05-07T11:02:09;101631.00;;;31.60
20733;BMP180;10527;52.124;5.196;2023-05-07T11:04:37;101638.00;;;31.70
20733;BMP180;10527;52.124;5.196;2023-05-07T11:10:06;101646.00;;;31.80
20733;BMP180;10527;52.124;5.196;2023-05-07T11:15:05;101646.00;;;31.90
20733;BMP180;10527;52.124;5.196;2023-05-07T11:17:34;101637.00;;;32.00
20733;BMP180;10527;52.124;5.196;2023-05-07T11:20:03;101648.00;;;32.00
20733;BMP180;10527;52.124;5.196;2023-05-07T11:25:06;101647.00;;;32.10
20733;BMP180;10527;52.124;5.196;2023-05-07T11:27:33;101644.00;;;32.20
20733;BMP180;10527;52.124;5.196;2023-05-07T11:30:00;101644.00;;;32.20
20733;BMP180;10527;52.124;5.196;2023-05-07T11:32:30;101644.00;;;32.30
20733;BMP180;10527;52.124;5.196;2023-05-07T11:34:59;101637.00;;;32.30
20733;BMP180;10527;52.124;5.196;2023-05-07T11:37:28;101643.00;;;32.40
20733;BMP180;10527;52.124;5.196;2023-05-07T11:40:08;101645.00;;;32.50
20733;BMP180;10527;52.124;5.196;2023-05-07T11:42:39;101644.00;;;32.60
20733;BMP180;10527;52.124;5.196;2023-05-07T11:45:08;101640.00;;;32.70
20733;BMP180;10527;52.124;5.196;2023-05-07T11:47:36;101643.00;;;32.70
20733;BMP180;10527;52.124;5.196;2023-05-07T11:50:06;101643.00;;;32.90
20733;BMP180;10527;52.124;5.196;2023-05-07T11:52:37;101641.00;;;32.90
20733;BMP180;10527;52.124;5.196;2023-05-07T11:55:08;101641.00;;;33.00
20733;BMP180;10527;52.124;5.196;2023-05-07T11:57:35;101644.00;;;33.10
20733;BMP180;10527;52.124;5.196;2023-05-07T12:00:03;101648.00;;;33.20
20733;BMP180;10527;52.124;5.196;2023-05-07T12:02:31;101645.00;;;33.20
20733;BMP180;10527;52.124;5.196;2023-05-07T12:05:00;101645.00;;;33.30
20733;BMP180;10527;52.124;5.196;2023-05-07T12:07:27;101648.00;;;33.40
20733;BMP180;10527;52.124;5.196;2023-05-07T12:09:54;101653.00;;;33.40
20733;BMP180;10527;52.124;5.196;2023-05-07T12:12:21;101646.00;;;33.40
20733;BMP180;10527;52.124;5.196;2023-05-07T12:14:48;101642.00;;;33.40
20733;BMP180;10527;52.124;5.196;2023-05-07T12:17:16;101641.00;;;33.50
20733;BMP180;10527;52.124;5.196;2023-05-07T12:19:45;101652.00;;;33.50
20733;BMP180;10527;52.124;5.196;2023-05-07T12:22:12;101646.00;;;33.50
20733;BMP180;10527;52.124;5.196;2023-05-07T12:25:06;101647.00;;;33.50
20733;BMP180;10527;52.124;5.196;2023-05-07T12:27:37;101643.00;;;33.50
20733;BMP180;10527;52.124;5.196;2023-05-07T12:30:10;101644.00;;;33.50
20733;BMP180;10527;52.124;5.196;2023-05-07T12:32:37;101641.00;;;33.60
20733;BMP180;10527;52.124;5.196;2023-05-07T12:35:06;101643.00;;;33.60
20733;BMP180;10527;52.124;5.196;2023-05-07T12:37:35;101640.00;;;33.60
20733;BMP180;10527;52.124;5.196;2023-05-07T12:40:09;101638.00;;;33.60
20733;BMP180;10527;52.124;5.196;2023-05-07T12:42:38;101641.00;;;33.60
20733;BMP180;10527;52.124;5.196;2023-05-07T12:45:16;101642.00;;;33.60
20733;BMP180;10527;52.124;5.196;2023-05-07T12:47:47;101639.00;;;33.60
20733;BMP180;10527;52.124;5.196;2023-05-07T12:50:15;101645.00;;;33.60
20733;BMP180;10527;52.124;5.196;2023-05-07T12:52:45;101642.00;;;33.50
20733;BMP180;10527;52.124;5.196;2023-05-07T12:55:15;101646.00;;;33.50
20733;BMP180;10527;52.124;5.196;2023-05-07T12:57:49;101647.00;;;33.50
20733;BMP180;10527;52.124;5.196;2023-05-07T13:00:35;101646.00;;;33.50
20733;BMP180;10527;52.124;5.196;2023-05-07T13:03:02;101646.00;;;33.50
20733;BMP180;10527;52.124;5.196;2023-05-07T13:05:29;101654.00;;;33.60
20733;BMP180;10527;52.124;5.196;2023-05-07T13:07:57;101659.00;;;33.60
20733;BMP180;10527;52.124;5.196;2023-05-07T13:10:24;101659.00;;;33.60
20733;BMP180;10527;52.124;5.196;2023-05-07T13:12:51;101653.00;;;33.60
20733;BMP180;10527;52.124;5.196;2023-05-07T13:15:19;101659.00;;;33.60
20733;BMP180;10527;52.124;5.196;2023-05-07T13:17:47;101659.00;;;33.60
20733;BMP180;10527;52.124;5.196;2023-05-07T13:20:13;101658.00;;;33.60
20733;BMP180;10527;52.124;5.196;2023-05-07T13:22:40;101656.00;;;33.60
20733;BMP180;10527;52.124;5.196;2023-05-07T13:25:08;101663.00;;;33.60
20733;BMP180;10527;52.124;5.196;2023-05-07T13:27:35;101661.00;;;33.60
20733;BMP180;10527;52.124;5.196;2023-05-07T13:30:05;101662.00;;;33.60
20733;BMP180;10527;52.124;5.196;2023-05-07T13:32:34;101660.00;;;33.60
20733;BMP180;10527;52.124;5.196;2023-05-07T13:35:01;101652.00;;;33.60
20733;BMP180;10527;52.124;5.196;2023-05-07T13:37:28;101659.00;;;33.70
20733;BMP180;10527;52.124;5.196;2023-05-07T13:39:55;101651.00;;;33.70
20733;BMP180;10527;52.124;5.196;2023-05-07T13:42:22;101644.00;;;33.80
20733;BMP180;10527;52.124;5.196;2023-05-07T13:44:48;101650.00;;;33.80
20733;BMP180;10527;52.124;5.196;2023-05-07T13:47:16;101650.00;;;33.90
20733;BMP180;10527;52.124;5.196;2023-05-07T13:49:43;101644.00;;;33.90
20733;BMP180;10527;52.124;5.196;2023-05-07T13:52:10;101634.00;;;33.90
20733;BMP180;10527;52.124;5.196;2023-05-07T13:54:37;101648.00;;;33.90
20733;BMP180;10527;52.124;5.196;2023-05-07T13:57:04;101637.00;;;34.00
20733;BMP180;10527;52.124;5.196;2023-05-07T13:59:31;101656.00;;;34.00
20733;BMP180;10527;52.124;5.196;2023-05-07T14:01:58;101652.00;;;34.00
20733;BMP180;10527;52.124;5.196;2023-05-07T14:04:25;101652.00;;;34.10
20733;BMP180;10527;52.124;5.196;2023-05-07T14:06:52;101648.00;;;34.10
20733;BMP180;10527;52.124;5.196;2023-05-07T14:09:19;101646.00;;;34.00
20733;BMP180;10527;52.124;5.196;2023-05-07T14:11:46;101653.00;;;34.00
20733;BMP180;10527;52.124;5.196;2023-05-07T14:14:14;101659.00;;;34.00
20733;BMP180;10527;52.124;5.196;2023-05-07T14:16:41;101645.00;;;34.00
20733;BMP180;10527;52.124;5.196;2023-05-07T14:19:07;101662.00;;;34.00